Time;durP1;ratioP1;P1;durP2;ratioP2;P2;SDS_P1;SDS_P2;PMS_P1;PMS_P2;Temp;Humidity;BMP_temperature;BMP_pressure;BME280_temperature;BME280_humidity;BME280_pressure;Samples;Min_cycle;Max_cycle;Signal;HPM_P1;HPM_P2
2021/06/18 00:00:52;;;;;;;52.92;43.17;;;20.40;97.00;;;;;;5033350;28;20038;-75
2021/06/18 00:03:18;;;;;;;44.75;37.42;;;20.40;97.00;;;;;;5033625;28;20069;-75
2021/06/18 00:05:44;;;;;;;45.72;38.13;;;20.50;97.10;;;;;;5033271;28;20379;-75
2021/06/18 00:08:10;;;;;;;41.65;35.85;;;20.40;97.10;;;;;;5033405;28;20041;-75
2021/06/18 00:10:36;;;;;;;52.60;42.20;;;20.50;97.20;;;;;;5033499;28;20147;-75
2021/06/18 00:13:01;;;;;;;45.47;38.55;;;20.20;97.30;;;;;;5033165;28;20039;-75
2021/06/18 00:15:27;;;;;;;52.85;40.35;;;20.40;97.30;;;;;;5033788;28;20049;-75
2021/06/18 00:17:53;;;;;;;46.50;38.70;;;20.40;97.40;;;;;;5033695;28;20064;-75
2021/06/18 00:20:19;;;;;;;48.05;41.88;;;20.30;97.30;;;;;;5033067;28;20037;-75
2021/06/18 00:22:45;;;;;;;50.88;42.70;;;20.20;97.50;;;;;;5033249;28;20048;-75
2021/06/18 00:25:12;;;;;;;57.85;43.88;;;20.20;97.40;;;;;;5033251;28;20112;-75
2021/06/18 00:27:37;;;;;;;54.10;45.40;;;20.20;97.60;;;;;;5033589;28;20041;-75
2021/06/18 00:30:06;;;;;;;56.45;45.60;;;20.20;97.90;;;;;;5031397;28;20041;-75
2021/06/18 00:32:31;;;;;;;54.33;42.20;;;20.10;97.70;;;;;;5032891;28;20125;-75
2021/06/18 00:34:57;;;;;;;53.80;42.05;;;20.20;97.60;;;;;;5033440;28;20045;-75
2021/06/18 00:37:23;;;;;;;49.13;41.72;;;20.10;97.70;;;;;;5033199;28;20034;-75
2021/06/18 00:39:49;;;;;;;52.60;42.05;;;20.10;97.70;;;;;;5032579;28;20045;-76
2021/06/18 00:42:14;;;;;;;50.70;43.95;;;20.00;97.90;;;;;;5032939;28;20033;-74
2021/06/18 00:44:40;;;;;;;54.35;46.85;;;20.00;98.00;;;;;;5033023;28;20041;-74
2021/06/18 00:47:19;;;;;;;55.88;46.22;;;20.10;97.90;;;;;;5032888;28;20038;-74
2021/06/18 00:49:45;;;;;;;57.17;46.40;;;20.10;97.80;;;;;;5032604;28;20053;-74
2021/06/18 00:52:11;;;;;;;57.60;48.92;;;20.10;97.90;;;;;;5032788;28;20099;-74
2021/06/18 00:54:39;;;;;;;61.05;48.10;;;20.10;98.00;;;;;;5033165;28;20134;-74
2021/06/18 00:57:05;;;;;;;64.45;49.35;;;20.10;98.00;;;;;;5033125;28;20041;-74
2021/06/18 00:59:31;;;;;;;53.97;45.28;;;20.00;98.10;;;;;;5032848;28;20050;-74
2021/06/18 01:01:57;;;;;;;55.05;45.05;;;20.00;98.20;;;;;;5032830;28;20041;-74
2021/06/18 01:04:28;;;;;;;60.35;48.88;;;20.00;98.20;;;;;;5032963;28;20116;-74
2021/06/18 01:07:00;;;;;;;59.72;48.03;;;20.00;98.30;;;;;;5032843;28;20042;-74
2021/06/18 01:09:30;;;;;;;60.35;48.10;;;19.90;98.20;;;;;;5032376;28;20045;-74
2021/06/18 01:12:10;;;;;;;57.63;47.90;;;20.00;98.20;;;;;;5032678;28;20500;-74
2021/06/18 01:15:02;;;;;;;57.70;44.85;;;19.90;98.40;;;;;;5032661;28;20041;-74
2021/06/18 01:17:55;;;;;;;58.63;46.60;;;19.90;98.40;;;;;;5035562;28;20042;-74
2021/06/18 01:20:43;;;;;;;57.63;46.85;;;19.90;98.50;;;;;;5035915;28;20034;-74
2021/06/18 01:23:39;;;;;;;57.30;46.80;;;19.80;98.60;;;;;;5036414;28;20037;-74
2021/06/18 01:26:23;;;;;;;58.33;48.25;;;19.90;98.60;;;;;;5036082;28;20034;-74
2021/06/18 01:29:01;;;;;;;54.15;45.08;;;19.80;98.80;;;;;;5035761;28;20069;-74
2021/06/18 01:31:45;;;;;;;56.60;45.92;;;19.90;98.70;;;;;;5035759;28;20038;-74
2021/06/18 01:34:19;;;;;;;51.05;42.78;;;19.90;98.80;;;;;;5036124;28;20033;-74
2021/06/18 01:36:50;;;;;;;55.08;47.00;;;19.80;98.80;;;;;;5035871;28;20044;-74
2021/06/18 01:39:17;;;;;;;56.92;43.85;;;19.80;98.90;;;;;;5034638;28;20042;-74
2021/06/18 01:41:45;;;;;;;52.28;44.42;;;19.80;98.90;;;;;;5035684;28;20055;-75
2021/06/18 01:44:12;;;;;;;53.15;43.38;;;19.80;99.00;;;;;;5035662;28;20036;-75
2021/06/18 01:46:39;;;;;;;60.55;45.30;;;19.80;98.90;;;;;;5035670;28;20045;-75
2021/06/18 01:49:11;;;;;;;59.35;48.40;;;19.70;99.10;;;;;;5035342;28;20060;-75
2021/06/18 01:51:37;;;;;;;56.58;47.65;;;19.70;99.30;;;;;;5035470;28;20095;-75
2021/06/18 01:54:05;;;;;;;57.97;48.28;;;19.60;99.30;;;;;;5035636;28;20108;-74
2021/06/18 01:56:34;;;;;;;54.22;44.80;;;19.60;99.40;;;;;;5035455;28;20042;-74
2021/06/18 01:59:02;;;;;;;55.65;47.20;;;19.60;99.50;;;;;;5035553;28;20041;-75
2021/06/18 02:01:37;;;;;;;56.80;47.58;;;19.60;99.60;;;;;;5035221;28;20393;-74
2021/06/18 02:04:07;;;;;;;52.65;46.88;;;19.50;99.70;;;;;;5035327;28;20037;-74
2021/06/18 02:06:39;;;;;;;56.83;48.83;;;19.60;99.60;;;;;;5035212;28;20045;-74
2021/06/18 02:09:07;;;;;;;56.17;44.97;;;19.60;99.40;;;;;;5035110;28;20034;-75
2021/06/18 02:11:35;;;;;;;59.28;48.88;;;19.60;99.40;;;;;;5035460;28;20092;-74
2021/06/18 02:14:03;;;;;;;53.42;43.42;;;19.70;99.50;;;;;;5035404;28;20061;-75
2021/06/18 02:16:32;;;;;;;59.28;46.80;;;19.70;99.50;;;;;;5035401;28;20041;-74
2021/06/18 02:18:58;;;;;;;48.97;43.55;;;19.70;99.50;;;;;;5034802;28;20038;-75
2021/06/18 02:21:28;;;;;;;54.85;47.38;;;19.70;99.40;;;;;;5034897;28;20124;-75
2021/06/18 02:23:56;;;;;;;57.22;47.47;;;19.70;99.50;;;;;;5035117;28;20041;-74
2021/06/18 02:26:24;;;;;;;52.95;43.92;;;19.70;99.40;;;;;;5034819;28;20047;-75
2021/06/18 02:28:51;;;;;;;54.55;44.67;;;19.70;99.40;;;;;;5033426;28;20041;-75
2021/06/18 02:31:20;;;;;;;54.40;46.17;;;19.70;99.40;;;;;;5034558;28;20087;-74
2021/06/18 02:33:46;;;;;;;57.97;49.95;;;19.70;99.50;;;;;;5035252;28;20037;-75
2021/06/18 02:36:12;;;;;;;55.38;47.85;;;19.70;99.70;;;;;;5034847;28;20485;-74
2021/06/18 02:38:39;;;;;;;58.42;48.38;;;19.60;99.70;;;;;;5034479;28;20053;-75
2021/06/18 02:41:05;;;;;;;57.70;48.60;;;19.60;99.80;;;;;;5034466;28;20041;-74
2021/06/18 02:43:30;;;;;;;55.20;45.40;;;19.40;99.90;;;;;;5035185;28;20040;-74
2021/06/18 02:45:56;;;;;;;54.70;46.78;;;19.40;99.90;;;;;;5034659;28;20049;-75
2021/06/18 02:48:31;;;;;;;54.83;45.45;;;19.50;99.90;;;;;;5034688;28;20037;-75
2021/06/18 02:51:02;;;;;;;51.28;44.30;;;19.60;99.90;;;;;;5034793;28;20091;-75
2021/06/18 02:53:33;;;;;;;57.97;46.75;;;19.60;99.90;;;;;;5034310;28;20029;-75
2021/06/18 02:56:12;;;;;;;56.35;47.33;;;19.60;99.90;;;;;;5034402;28;20116;-75
2021/06/18 02:58:54;;;;;;;56.05;49.92;;;19.50;99.90;;;;;;5034026;28;20517;-75
2021/06/18 03:01:24;;;;;;;54.65;46.60;;;19.50;99.90;;;;;;5034485;28;20053;-75
2021/06/18 03:03:55;;;;;;;57.22;48.35;;;19.40;99.90;;;;;;5033716;28;20116;-75
2021/06/18 03:06:21;;;;;;;52.72;46.60;;;19.40;99.90;;;;;;5034589;28;20037;-75
2021/06/18 03:08:55;;;;;;;55.78;47.13;;;19.40;99.90;;;;;;5033691;28;20474;-75
2021/06/18 03:11:26;;;;;;;52.75;42.80;;;19.20;99.90;;;;;;5034566;28;20033;-75
2021/06/18 03:13:55;;;;;;;49.42;44.00;;;19.20;99.90;;;;;;5034500;28;20080;-74
2021/06/18 03:16:22;;;;;;;53.95;45.15;;;19.20;99.90;;;;;;5034243;28;20041;-74
2021/06/18 03:18:50;;;;;;;52.95;43.40;;;19.30;99.90;;;;;;5033775;28;20500;-74
2021/06/18 03:21:16;;;;;;;54.28;44.70;;;19.30;99.90;;;;;;5033912;28;20037;-74
2021/06/18 03:23:43;;;;;;;54.15;45.95;;;19.20;99.90;;;;;;5049392;28;20044;-74
2021/06/18 03:26:10;;;;;;;52.88;44.58;;;19.00;99.90;;;;;;5034136;28;20045;-74
2021/06/18 03:28:37;;;;;;;52.97;45.08;;;19.00;99.90;;;;;;5033491;28;20474;-74
2021/06/18 03:31:07;;;;;;;49.17;41.47;;;19.00;99.90;;;;;;5034163;28;20118;-74
2021/06/18 03:33:33;;;;;;;47.17;40.83;;;19.00;99.90;;;;;;5034309;28;20043;-74
2021/06/18 03:36:00;;;;;;;52.72;43.72;;;19.00;99.90;;;;;;5033568;28;20444;-74
2021/06/18 03:38:26;;;;;;;55.17;45.92;;;19.00;99.90;;;;;;5033667;28;20045;-75
2021/06/18 03:40:52;;;;;;;46.58;41.40;;;19.00;99.90;;;;;;5033488;28;20042;-75
2021/06/18 03:43:19;;;;;;;54.45;42.72;;;19.10;99.90;;;;;;5033747;28;20060;-75
2021/06/18 03:45:49;;;;;;;48.63;41.92;;;19.20;99.90;;;;;;5033590;28;20112;-75
2021/06/18 03:48:16;;;;;;;48.72;42.53;;;19.20;99.90;;;;;;5033292;28;20033;-75
2021/06/18 03:50:43;;;;;;;44.95;40.03;;;19.10;99.90;;;;;;5033206;28;20052;-74
2021/06/18 03:53:10;;;;;;;47.13;41.85;;;19.00;99.90;;;;;;5033490;28;20094;-74
2021/06/18 03:55:37;;;;;;;48.22;39.58;;;19.00;99.90;;;;;;5033417;28;20045;-74
2021/06/18 03:58:05;;;;;;;43.47;38.75;;;19.20;99.90;;;;;;5034069;28;20037;-74
2021/06/18 04:00:36;;;;;;;53.58;44.20;;;19.10;99.90;;;;;;5033002;28;20116;-75
2021/06/18 04:03:04;;;;;;;47.53;40.65;;;19.20;99.90;;;;;;5033641;28;20080;-75
2021/06/18 04:05:32;;;;;;;48.22;42.65;;;19.10;99.90;;;;;;5033497;28;20042;-75
2021/06/18 04:07:58;;;;;;;43.15;38.38;;;19.20;99.90;;;;;;5033502;28;20458;-75
2021/06/18 04:10:25;;;;;;;44.63;39.60;;;19.30;99.90;;;;;;5033259;28;20045;-75
2021/06/18 04:12:53;;;;;;;43.95;38.40;;;19.20;99.90;;;;;;5032154;28;20419;-75
2021/06/18 04:15:22;;;;;;;45.63;40.03;;;19.10;99.90;;;;;;5033222;28;20045;-75
2021/06/18 04:17:48;;;;;;;43.33;38.47;;;19.30;99.90;;;;;;5033223;28;20122;-75
2021/06/18 04:20:17;;;;;;;42.28;36.75;;;19.40;99.90;;;;;;5032965;28;20408;-75
2021/06/18 04:22:45;;;;;;;42.70;37.88;;;19.40;99.90;;;;;;5033603;28;20034;-75
2021/06/18 04:25:11;;;;;;;40.45;35.75;;;19.60;99.90;;;;;;5033717;28;20485;-75
2021/06/18 04:27:37;;;;;;;40.97;32.45;;;19.70;99.90;;;;;;5033650;28;20046;-75
2021/06/18 04:30:11;;;;;;;40.42;35.00;;;19.90;99.90;;;;;;5032694;28;20450;-75
2021/06/18 04:32:37;;;;;;;36.67;30.92;;;19.90;99.90;;;;;;5032926;28;20044;-75
2021/06/18 04:35:05;;;;;;;36.78;32.42;;;19.90;99.90;;;;;;5033395;28;20382;-76
2021/06/18 04:37:30;;;;;;;35.08;31.38;;;20.00;99.90;;;;;;5033353;28;20091;-76
2021/06/18 04:39:56;;;;;;;39.90;34.55;;;20.00;99.90;;;;;;5032841;28;20045;-75
2021/06/18 04:42:23;;;;;;;40.90;36.03;;;20.10;99.90;;;;;;5032995;28;20054;-75
2021/06/18 04:44:48;;;;;;;36.00;32.17;;;20.00;99.90;;;;;;5032896;28;20045;-75
2021/06/18 04:47:14;;;;;;;33.47;29.17;;;20.10;99.90;;;;;;5032853;28;20041;-75
2021/06/18 04:49:40;;;;;;;34.13;29.75;;;20.20;99.90;;;;;;5032382;28;20051;-75
2021/06/18 04:52:06;;;;;;;35.00;30.70;;;20.00;99.90;;;;;;5035781;28;20072;-75
2021/06/18 04:54:32;;;;;;;35.55;31.35;;;20.00;99.90;;;;;;5036900;28;20052;-75
2021/06/18 04:56:58;;;;;;;34.10;30.08;;;20.00;99.90;;;;;;5036979;28;20041;-75
2021/06/18 04:59:24;;;;;;;36.25;30.50;;;20.00;99.90;;;;;;5036516;28;20044;-75
2021/06/18 05:01:50;;;;;;;36.45;32.42;;;20.00;99.90;;;;;;5036444;28;20456;-75
2021/06/18 05:04:16;;;;;;;40.25;31.58;;;20.10;99.90;;;;;;5036460;28;20037;-75
2021/06/18 05:06:42;;;;;;;33.03;28.85;;;20.20;99.90;;;;;;5036445;28;20124;-76
2021/06/18 05:09:07;;;;;;;37.45;32.33;;;20.30;99.90;;;;;;5036440;28;20045;-75
2021/06/18 05:11:33;;;;;;;34.67;29.65;;;20.20;99.90;;;;;;5036286;28;20041;-76
2021/06/18 05:13:59;;;;;;;36.97;30.98;;;20.00;99.90;;;;;;5036537;28;20524;-76
2021/06/18 05:16:27;;;;;;;38.45;33.13;;;20.10;99.90;;;;;;5036326;28;20424;-75
2021/06/18 05:18:53;;;;;;;36.72;32.83;;;20.30;99.90;;;;;;5036168;28;20056;-76
2021/06/18 05:21:19;;;;;;;40.28;35.17;;;20.30;99.90;;;;;;5036474;28;20037;-75
2021/06/18 05:23:44;;;;;;;37.33;31.98;;;20.20;99.90;;;;;;5036167;28;20060;-75
2021/06/18 05:26:11;;;;;;;39.08;33.55;;;20.30;99.90;;;;;;5036147;28;20069;-75
2021/06/18 05:28:36;;;;;;;36.92;33.00;;;20.30;99.90;;;;;;5035976;28;20405;-76
2021/06/18 05:31:02;;;;;;;39.95;34.70;;;20.10;99.90;;;;;;5035947;28;20108;-76
2021/06/18 05:33:29;;;;;;;39.63;34.00;;;20.10;99.90;;;;;;5035121;28;20038;-75
2021/06/18 05:35:54;;;;;;;40.83;35.00;;;20.20;99.90;;;;;;5036379;28;20065;-76
2021/06/18 05:38:20;;;;;;;39.60;35.33;;;20.20;99.90;;;;;;5036151;28;20052;-76
2021/06/18 05:40:46;;;;;;;46.75;38.67;;;20.30;99.90;;;;;;5035448;28;20049;-75
2021/06/18 05:43:12;;;;;;;44.63;36.58;;;20.30;99.90;;;;;;5036004;28;20056;-75
2021/06/18 05:45:39;;;;;;;42.35;37.38;;;20.30;99.90;;;;;;5035888;28;20037;-75
2021/06/18 05:48:06;;;;;;;43.40;37.70;;;20.20;99.90;;;;;;5035950;28;20038;-75
2021/06/18 05:50:32;;;;;;;43.58;35.88;;;20.30;99.90;;;;;;5035457;28;20045;-75
2021/06/18 05:52:58;;;;;;;40.47;36.15;;;20.30;99.90;;;;;;5034487;28;20037;-75
2021/06/18 05:55:24;;;;;;;41.42;36.30;;;20.40;99.90;;;;;;5035623;28;20068;-75
2021/06/18 05:57:53;;;;;;;38.13;34.22;;;20.60;99.90;;;;;;5035581;28;20068;-76
2021/06/18 06:00:20;;;;;;;40.17;33.67;;;20.50;99.90;;;;;;5035314;28;20042;-76
2021/06/18 06:02:46;;;;;;;36.33;32.42;;;20.50;99.90;;;;;;5035240;28;20428;-76
2021/06/18 06:05:12;;;;;;;34.92;31.23;;;20.80;99.90;;;;;;5035632;28;20120;-76
2021/06/18 06:07:43;;;;;;;34.72;31.00;;;20.80;99.90;;;;;;5035753;28;20049;-76
2021/06/18 06:10:09;;;;;;;39.25;32.10;;;20.80;99.90;;;;;;5035016;28;20048;-76
2021/06/18 06:12:34;;;;;;;36.20;31.63;;;21.00;99.60;;;;;;5035241;28;20049;-76
2021/06/18 06:15:00;;;;;;;34.38;30.77;;;21.00;99.40;;;;;;5035290;28;20049;-76
2021/06/18 06:17:26;;;;;;;32.67;29.20;;;21.10;99.30;;;;;;5035173;28;20049;-75
2021/06/18 06:19:52;;;;;;;35.38;31.58;;;21.20;99.10;;;;;;5034576;28;20042;-75
2021/06/18 06:22:19;;;;;;;36.33;32.30;;;20.80;99.50;;;;;;5034836;28;20037;-76
2021/06/18 06:24:45;;;;;;;38.53;33.17;;;20.60;99.90;;;;;;5034869;28;20038;-75
2021/06/18 06:27:11;;;;;;;37.53;32.58;;;20.80;99.90;;;;;;5034825;28;20507;-76
2021/06/18 06:29:36;;;;;;;36.63;32.75;;;20.70;99.90;;;;;;5034877;28;20529;-76
2021/06/18 06:32:03;;;;;;;39.38;33.47;;;20.40;99.90;;;;;;5034511;28;20120;-77
2021/06/18 06:34:28;;;;;;;36.13;30.92;;;20.30;99.90;;;;;;5034721;28;20493;-76
2021/06/18 06:36:54;;;;;;;33.45;29.38;;;20.30;99.90;;;;;;5034832;28;20048;-76
2021/06/18 06:39:20;;;;;;;34.42;29.75;;;20.80;99.90;;;;;;5034513;28;20048;-76
2021/06/18 06:41:46;;;;;;;29.60;26.50;;;21.30;99.90;;;;;;5034924;28;20038;-76
2021/06/18 06:44:12;;;;;;;33.60;29.88;;;21.50;99.90;;;;;;5034916;28;20049;-76
2021/06/18 06:46:38;;;;;;;31.58;28.00;;;21.50;99.50;;;;;;5034870;28;20042;-75
2021/06/18 06:49:03;;;;;;;34.38;29.73;;;21.80;99.10;;;;;;5049713;28;20048;-76
2021/06/18 06:51:29;;;;;;;31.65;27.40;;;21.80;98.70;;;;;;5035094;28;20073;-75
2021/06/18 06:53:55;;;;;;;30.40;27.20;;;21.90;98.60;;;;;;5034461;28;20428;-76
2021/06/18 06:56:21;;;;;;;27.90;25.05;;;21.80;98.10;;;;;;5034544;28;20029;-76
2021/06/18 06:58:47;;;;;;;27.75;24.85;;;21.70;97.90;;;;;;5033456;28;20041;-75
2021/06/18 07:01:13;;;;;;;28.33;25.33;;;21.50;97.90;;;;;;5034426;28;20041;-74
2021/06/18 07:03:40;;;;;;;28.40;25.63;;;21.20;98.10;;;;;;5034221;28;20117;-74
2021/06/18 07:06:07;;;;;;;28.90;25.80;;;21.20;98.70;;;;;;5034770;28;20037;-75
2021/06/18 07:08:32;;;;;;;27.33;24.63;;;21.40;98.30;;;;;;5034065;28;20103;-75
2021/06/18 07:10:59;;;;;;;28.13;25.20;;;21.60;97.90;;;;;;5034474;28;20508;-75
2021/06/18 07:13:24;;;;;;;26.45;23.60;;;21.90;97.90;;;;;;5033879;28;20044;-74
2021/06/18 07:15:51;;;;;;;25.15;22.55;;;22.20;96.80;;;;;;5032951;28;20041;-75
2021/06/18 07:18:17;;;;;;;24.23;21.70;;;22.00;96.60;;;;;;5034396;28;20033;-75
2021/06/18 07:20:42;;;;;;;23.60;21.10;;;21.80;96.80;;;;;;5033610;28;20044;-75
2021/06/18 07:23:09;;;;;;;22.42;20.13;;;21.80;96.70;;;;;;5033959;28;20486;-74
2021/06/18 07:25:36;;;;;;;21.73;19.45;;;22.20;96.20;;;;;;5034086;28;20417;-74
2021/06/18 07:28:06;;;;;;;24.00;17.63;;;22.40;95.80;;;;;;5032678;28;20116;-76
2021/06/18 07:30:33;;;;;;;18.33;16.50;;;22.70;95.00;;;;;;5033670;28;20048;-73
2021/06/18 07:32:59;;;;;;;16.08;14.57;;;22.80;94.80;;;;;;5033584;28;20045;-74
2021/06/18 07:35:25;;;;;;;15.23;13.73;;;22.80;94.90;;;;;;5033736;28;20156;-72
2021/06/18 07:37:51;;;;;;;15.57;14.07;;;23.20;94.40;;;;;;5033826;28;20049;-69
2021/06/18 07:40:18;;;;;;;15.60;13.98;;;23.10;94.30;;;;;;5033537;28;20048;-69
2021/06/18 07:42:45;;;;;;;16.88;14.25;;;23.30;93.40;;;;;;5033738;28;20035;-70
2021/06/18 07:45:12;;;;;;;15.27;13.73;;;23.30;93.40;;;;;;5033848;28;20050;-69
2021/06/18 07:47:39;;;;;;;15.00;13.50;;;23.40;93.80;;;;;;5033561;28;20481;-70
2021/06/18 07:50:11;;;;;;;14.93;13.52;;;23.40;93.20;;;;;;5033195;28;20087;-70
2021/06/18 07:52:37;;;;;;;15.52;13.80;;;23.00;93.60;;;;;;5033804;28;20049;-70
2021/06/18 07:55:06;;;;;;;13.10;11.80;;;23.20;93.80;;;;;;5033630;28;20080;-70
2021/06/18 07:57:31;;;;;;;14.05;12.65;;;23.60;93.70;;;;;;5033480;28;20069;-70
2021/06/18 07:59:57;;;;;;;15.90;14.25;;;23.80;93.10;;;;;;5033102;28;20077;-69
2021/06/18 08:02:23;;;;;;;16.13;14.63;;;23.60;93.00;;;;;;5033599;28;20037;-69
2021/06/18 08:04:50;;;;;;;16.75;15.10;;;23.20;93.70;;;;;;5033305;28;20065;-69
2021/06/18 08:07:16;;;;;;;18.98;16.77;;;23.20;93.60;;;;;;5032223;28;20044;-70
2021/06/18 08:09:42;;;;;;;19.10;17.08;;;23.50;93.60;;;;;;5033172;28;20038;-71
2021/06/18 08:12:08;;;;;;;19.92;18.02;;;23.40;93.80;;;;;;5033477;28;20478;-69
2021/06/18 08:14:33;;;;;;;20.38;18.33;;;23.50;93.80;;;;;;5033403;28;20055;-69
2021/06/18 08:16:59;;;;;;;19.63;17.73;;;23.50;93.40;;;;;;5033649;28;20112;-69
2021/06/18 08:19:25;;;;;;;18.00;15.98;;;23.50;93.00;;;;;;5033030;28;20065;-69
2021/06/18 08:21:50;;;;;;;16.25;14.57;;;23.50;93.20;;;;;;5033246;28;20063;-69
2021/06/18 08:24:16;;;;;;;14.43;13.15;;;23.40;93.10;;;;;;5033235;28;20152;-69
2021/06/18 08:26:42;;;;;;;16.52;13.27;;;23.40;93.00;;;;;;5037013;28;20076;-69
2021/06/18 08:29:08;;;;;;;15.45;13.00;;;23.20;93.20;;;;;;5036871;28;20050;-69
2021/06/18 08:31:33;;;;;;;14.65;13.15;;;23.10;93.70;;;;;;5036871;28;20046;-69
2021/06/18 08:34:00;;;;;;;15.73;12.68;;;23.00;93.70;;;;;;5037275;28;20042;-69
2021/06/18 08:36:26;;;;;;;13.65;12.45;;;23.00;94.00;;;;;;5037367;28;20038;-69
2021/06/18 08:38:52;;;;;;;12.55;11.27;;;23.40;93.50;;;;;;5036690;28;20047;-69
2021/06/18 08:41:17;;;;;;;13.63;11.50;;;23.50;93.30;;;;;;5037318;28;20037;-70
2021/06/18 08:43:46;;;;;;;15.43;12.05;;;23.60;93.60;;;;;;5037408;28;20462;-69
2021/06/18 08:46:12;;;;;;;12.93;11.45;;;23.50;93.50;;;;;;5036897;28;20107;-69
2021/06/18 08:48:38;;;;;;;14.75;11.75;;;23.60;93.10;;;;;;5036466;28;20038;-71
2021/06/18 08:51:04;;;;;;;14.30;12.68;;;23.40;93.40;;;;;;5037030;28;20038;-70
2021/06/18 08:53:34;;;;;;;12.85;11.65;;;23.50;93.60;;;;;;5036754;28;20586;-69
2021/06/18 08:55:59;;;;;;;12.65;11.38;;;23.50;93.60;;;;;;5036837;28;20045;-70
2021/06/18 08:58:25;;;;;;;13.55;11.43;;;23.60;92.90;;;;;;5036545;28;20037;-70
2021/06/18 09:00:51;;;;;;;14.48;11.60;;;23.60;92.90;;;;;;5036288;28;20033;-70
2021/06/18 09:03:46;;;;;;;11.82;10.63;;;23.50;93.20;;;;;;5036664;28;20034;-70
2021/06/18 09:06:17;;;;;;;11.30;10.20;;;23.60;93.50;;;;;;5036490;28;20536;-70
2021/06/18 09:08:44;;;;;;;13.15;11.85;;;23.80;93.20;;;;;;5036027;28;20052;-70
2021/06/18 09:11:10;;;;;;;13.15;11.57;;;24.40;92.30;;;;;;5035645;28;20103;-71
2021/06/18 09:13:36;;;;;;;13.05;11.68;;;24.70;92.00;;;;;;5036569;28;20041;-70
2021/06/18 09:16:03;;;;;;;13.48;12.07;;;25.00;91.30;;;;;;5036228;28;20116;-71
2021/06/18 09:18:39;;;;;;;14.90;10.95;;;25.20;91.40;;;;;;5035925;28;20404;-71
2021/06/18 09:21:05;;;;;;;13.20;11.73;;;25.50;91.10;;;;;;5036363;28;20029;-70
2021/06/18 09:23:57;;;;;;;14.23;11.70;;;25.90;90.10;;;;;;5036189;28;20507;-70
2021/06/18 09:26:34;;;;;;;13.13;11.80;;;25.90;88.30;;;;;;5034154;28;20483;-70
2021/06/18 09:29:03;;;;;;;14.23;12.57;;;25.70;88.10;;;;;;5035941;28;20205;-71
2021/06/18 09:31:32;;;;;;;13.55;11.15;;;25.50;89.90;;;;;;5036210;28;20068;-70
2021/06/18 09:33:58;;;;;;;20.20;12.77;;;25.30;90.20;;;;;;5036213;28;20065;-70
2021/06/18 09:36:23;;;;;;;12.32;10.32;;;25.30;89.40;;;;;;5035743;28;20033;-71
2021/06/18 09:38:55;;;;;;;17.55;9.27;;;25.10;89.70;;;;;;5035385;28;20045;-71
2021/06/18 09:41:31;;;;;;;8.57;7.05;;;25.10;90.00;;;;;;5036095;28;20115;-71
2021/06/18 09:44:16;;;;;;;9.25;6.70;;;25.50;88.70;;;;;;5035862;28;20458;-71
2021/06/18 09:46:53;;;;;;;7.55;6.13;;;25.50;88.60;;;;;;5035844;28;20049;-70
2021/06/18 09:49:31;;;;;;;8.90;7.88;;;25.50;88.40;;;;;;5035413;28;20037;-70
2021/06/18 09:51:58;;;;;;;8.98;7.95;;;25.50;87.40;;;;;;5036228;28;20490;-70
2021/06/18 09:54:31;;;;;;;42.00;12.38;;;25.40;87.80;;;;;;5036291;28;20041;-70
2021/06/18 09:57:17;;;;;;;13.65;7.60;;;25.50;88.10;;;;;;5035549;28;20048;-70
2021/06/18 09:59:44;;;;;;;8.25;7.10;;;25.60;88.70;;;;;;5035294;28;20037;-70
2021/06/18 10:02:10;;;;;;;7.88;7.10;;;25.60;89.50;;;;;;5035988;28;20069;-71
2021/06/18 10:04:36;;;;;;;7.80;7.05;;;25.70;89.70;;;;;;5035672;28;20115;-70
2021/06/18 10:07:03;;;;;;;7.63;6.70;;;25.60;88.80;;;;;;5035129;28;20049;-71
2021/06/18 10:09:28;;;;;;;8.32;6.53;;;25.50;87.70;;;;;;5035322;28;20037;-71
2021/06/18 10:11:55;;;;;;;7.57;6.40;;;25.50;88.90;;;;;;5035573;28;20402;-70
2021/06/18 10:14:21;;;;;;;9.85;6.35;;;25.30;89.00;;;;;;5035471;28;20561;-70
2021/06/18 10:16:47;;;;;;;7.28;6.57;;;25.40;87.90;;;;;;5035113;28;20145;-71
2021/06/18 10:19:14;;;;;;;7.93;7.13;;;25.20;89.10;;;;;;5035060;28;20485;-71
2021/06/18 10:21:50;;;;;;;8.30;7.50;;;25.20;89.90;;;;;;5034610;28;20068;-71
2021/06/18 10:24:17;;;;;;;7.47;6.30;;;25.40;89.90;;;;;;5034851;28;20144;-71
2021/06/18 10:26:49;;;;;;;7.90;6.80;;;25.50;89.30;;;;;;5035280;28;20065;-71
2021/06/18 10:29:37;;;;;;;9.30;6.15;;;25.60;87.30;;;;;;5035004;28;20041;-71
2021/06/18 10:32:35;;;;;;;9.52;7.25;;;25.80;85.90;;;;;;5034989;28;20404;-71
2021/06/18 10:35:04;;;;;;;8.75;7.82;;;25.80;86.40;;;;;;5012351;28;20079;-70
2021/06/18 10:37:32;;;;;;;9.27;8.23;;;25.90;87.30;;;;;;5035323;28;20509;-71
2021/06/18 10:40:11;;;;;;;8.40;7.60;;;26.00;87.60;;;;;;5034566;28;20045;-71
2021/06/18 10:42:57;;;;;;;7.63;6.82;;;26.10;86.80;;;;;;5034833;28;20037;-71
2021/06/18 10:45:42;;;;;;;10.20;6.32;;;26.00;86.80;;;;;;5034730;28;20125;-71
2021/06/18 10:48:09;;;;;;;7.35;6.45;;;26.10;86.00;;;;;;5034070;28;20042;-71
2021/06/18 10:50:48;;;;;;;7.60;6.07;;;26.10;84.70;;;;;;5033827;28;20489;-71
2021/06/18 10:53:18;;;;;;;6.57;5.45;;;26.10;85.60;;;;;;5034427;28;20038;-71
2021/06/18 10:55:48;;;;;;;9.07;5.93;;;26.10;86.80;;;;;;5034440;28;20041;-71
2021/06/18 10:58:14;;;;;;;9.65;5.97;;;25.90;86.20;;;;;;5034371;28;20044;-70
2021/06/18 11:00:40;;;;;;;6.47;5.75;;;26.00;86.50;;;;;;5033875;28;20042;-71
2021/06/18 11:03:05;;;;;;;6.22;5.32;;;26.00;86.90;;;;;;5034507;28;20065;-71
2021/06/18 11:05:35;;;;;;;5.85;4.72;;;26.00;86.70;;;;;;5034207;28;20065;-71
2021/06/18 11:08:19;;;;;;;5.25;4.68;;;26.00;86.30;;;;;;5034238;28;20040;-71
2021/06/18 11:10:44;;;;;;;5.95;5.15;;;26.10;85.80;;;;;;5033607;28;20476;-71
2021/06/18 11:13:10;;;;;;;6.75;5.20;;;26.00;86.80;;;;;;5034319;28;20124;-70
2021/06/18 11:15:38;;;;;;;6.13;5.05;;;25.90;86.70;;;;;;5034004;28;20042;-71
2021/06/18 11:18:16;;;;;;;7.78;6.07;;;26.00;87.50;;;;;;5033822;28;20045;-71
2021/06/18 11:20:41;;;;;;;9.07;5.40;;;25.90;88.40;;;;;;5033566;28;20401;-71
2021/06/18 11:23:10;;;;;;;6.25;5.43;;;25.90;89.00;;;;;;5034235;28;20124;-71
2021/06/18 11:25:44;;;;;;;6.55;5.38;;;26.00;88.40;;;;;;5034278;28;20041;-70
2021/06/18 11:28:21;;;;;;;7.07;5.53;;;26.00;87.90;;;;;;5034034;28;20116;-71
2021/06/18 11:31:08;;;;;;;9.18;5.47;;;26.00;87.40;;;;;;5033508;28;20037;-70
2021/06/18 11:34:00;;;;;;;6.95;5.65;;;26.10;87.60;;;;;;5034318;28;20044;-71
2021/06/18 11:36:33;;;;;;;6.75;5.78;;;26.20;87.70;;;;;;5033607;28;20055;-71
2021/06/18 11:39:03;;;;;;;7.95;5.70;;;26.10;87.60;;;;;;5033616;28;20049;-71
2021/06/18 11:41:40;;;;;;;7.72;6.03;;;26.20;87.50;;;;;;5033872;28;20057;-71
2021/06/18 11:44:07;;;;;;;8.85;5.35;;;26.40;87.30;;;;;;5033745;28;20042;-70
2021/06/18 11:46:36;;;;;;;9.93;6.00;;;26.40;88.20;;;;;;5033546;28;20482;-70
2021/06/18 11:49:18;;;;;;;6.40;5.50;;;26.40;88.40;;;;;;5033117;28;20045;-70
2021/06/18 11:51:44;;;;;;;6.15;5.22;;;26.50;88.10;;;;;;5033677;28;20041;-71
2021/06/18 11:54:31;;;;;;;5.88;4.45;;;26.50;86.60;;;;;;5032183;28;20045;-72
2021/06/18 11:57:06;;;;;;;5.50;4.85;;;26.40;87.30;;;;;;5033632;28;20037;-70
2021/06/18 11:59:33;;;;;;;6.70;5.05;;;26.50;87.50;;;;;;5031536;28;20053;-70
2021/06/18 12:02:12;;;;;;;5.93;5.32;;;26.50;86.80;;;;;;5033296;28;20449;-70
2021/06/18 12:04:38;;;;;;;11.10;7.35;;;26.30;88.20;;;;;;5033360;28;20037;-69
2021/06/18 12:07:04;;;;;;;8.63;6.72;;;26.50;86.10;;;;;;5032428;28;20049;-70
2021/06/18 12:09:37;;;;;;;7.15;5.80;;;26.40;86.60;;;;;;5033055;28;20137;-70
2021/06/18 12:12:03;;;;;;;6.60;5.32;;;26.50;86.10;;;;;;5033243;28;20037;-70
2021/06/18 12:14:40;;;;;;;7.40;6.32;;;26.50;86.90;;;;;;5033280;28;20044;-70
2021/06/18 12:17:07;;;;;;;9.07;6.85;;;26.50;86.80;;;;;;5033357;28;20116;-70
2021/06/18 12:19:35;;;;;;;8.68;7.75;;;26.50;86.80;;;;;;5033097;28;20401;-70
2021/06/18 12:22:06;;;;;;;7.50;6.80;;;26.30;88.00;;;;;;5033111;28;20041;-70
2021/06/18 12:24:53;;;;;;;8.20;6.18;;;26.40;87.10;;;;;;5033015;28;20063;-70
2021/06/18 12:27:38;;;;;;;8.35;6.72;;;26.70;86.40;;;;;;5033297;28;20573;-70
2021/06/18 12:30:12;;;;;;;7.00;6.30;;;26.80;85.60;;;;;;5032987;28;20041;-70
2021/06/18 12:32:38;;;;;;;7.90;6.53;;;26.70;84.90;;;;;;5033112;28;20129;-70
2021/06/18 12:35:06;;;;;;;8.63;6.60;;;26.80;85.20;;;;;;5033345;28;20112;-70
2021/06/18 12:37:34;;;;;;;7.72;6.93;;;26.50;88.90;;;;;;5032850;28;20057;-70
2021/06/18 12:40:07;;;;;;;10.40;7.43;;;26.50;89.30;;;;;;5032643;28;20045;-70